createdAt,value
2023-05-19T00:00:27.777Z,2.4143
2023-05-19T00:01:35.813Z,2.4429
2023-05-19T00:02:44.112Z,2.4714
2023-05-19T00:03:52.069Z,2.5000
2023-05-19T00:05:00.145Z,2.5571
2023-05-19T00:06:08.276Z,2.3500
2023-05-19T00:07:16.238Z,2.3571
2023-05-19T00:08:24.314Z,2.4786
2023-05-19T00:09:32.389Z,2.4286
2023-05-19T00:10:40.435Z,2.3429
2023-05-19T00:11:48.664Z,2.3429
2023-05-19T00:12:56.565Z,2.3071
2023-05-19T00:14:04.472Z,2.1429
2023-05-19T00:15:12.535Z,2.3000
2023-05-19T00:16:20.648Z,2.3286
2023-05-19T00:17:28.876Z,2.3643
2023-05-19T00:18:36.868Z,2.5571
2023-05-19T00:19:44.913Z,2.7214
2023-05-19T00:20:52.959Z,2.3714
2023-05-19T00:22:01.117Z,2.4286
2023-05-19T00:23:09.238Z,2.3786
2023-05-19T00:24:17.330Z,2.3714
2023-05-19T00:25:25.301Z,2.1286
2023-05-19T00:26:33.358Z,2.3500
2023-05-19T00:27:41.421Z,2.4857
2023-05-19T00:28:49.401Z,2.2643
2023-05-19T00:29:57.470Z,2.3000
2023-05-19T00:31:05.460Z,2.4071
2023-05-19T00:32:13.745Z,2.5929
2023-05-19T00:33:21.759Z,2.5286
2023-05-19T00:34:29.905Z,2.4857
2023-05-19T00:35:37.999Z,2.4643
2023-05-19T00:36:45.922Z,2.3071
2023-05-19T00:37:54.009Z,2.2643
2023-05-19T00:39:02.086Z,2.5000
2023-05-19T00:40:10.197Z,2.4071
2023-05-19T00:41:18.189Z,2.3571
2023-05-19T00:42:26.384Z,2.1786
2023-05-19T00:43:34.205Z,2.3143
2023-05-19T00:44:42.231Z,2.3000
2023-05-19T00:45:50.377Z,2.2071
2023-05-19T00:46:58.570Z,2.4571
2023-05-19T00:48:06.643Z,2.2143
2023-05-19T00:49:14.611Z,2.3500
2023-05-19T00:50:22.722Z,2.3214
2023-05-19T00:51:30.812Z,2.2500
2023-05-19T00:52:38.815Z,2.3214
2023-05-19T00:53:46.898Z,2.4071
2023-05-19T00:54:54.957Z,2.3714
2023-05-19T00:56:03.072Z,2.2643
2023-05-19T00:57:11.210Z,2.4786
2023-05-19T00:58:18.987Z,2.6643
2023-05-19T00:59:27.071Z,2.4357
2023-05-19T01:00:35.372Z,2.3500
2023-05-19T01:01:43.625Z,2.5071
2023-05-19T01:02:51.511Z,2.5143
2023-05-19T01:03:59.653Z,2.5071
2023-05-19T01:05:07.562Z,2.4786
2023-05-19T01:06:15.794Z,2.3071
2023-05-19T01:07:23.631Z,2.2357
2023-05-19T01:08:31.812Z,2.3714
2023-05-19T01:09:39.737Z,2.5714
2023-05-19T01:10:47.820Z,2.3714
2023-05-19T01:11:55.954Z,2.2714
2023-05-19T01:13:03.820Z,2.5143
2023-05-19T01:14:11.962Z,2.2571
2023-05-19T01:15:19.958Z,2.4429
2023-05-19T01:16:28.140Z,2.3857
2023-05-19T01:17:36.370Z,2.2571
2023-05-19T01:18:44.548Z,2.2786
2023-05-19T01:19:52.469Z,2.3000
2023-05-19T01:21:00.396Z,2.5143
2023-05-19T01:22:08.434Z,2.3786
2023-05-19T01:23:16.805Z,2.4929
2023-05-19T01:24:24.710Z,2.2286
2023-05-19T01:25:32.707Z,2.3714
2023-05-19T01:26:40.715Z,2.5357
2023-05-19T01:27:48.597Z,2.4429
2023-05-19T01:28:56.678Z,2.3286
2023-05-19T01:30:04.757Z,2.4214
2023-05-19T01:31:13.072Z,2.5500
2023-05-19T01:32:21.084Z,2.6071
2023-05-19T01:33:29.232Z,2.4429
2023-05-19T01:34:37.198Z,2.3286
2023-05-19T01:35:45.170Z,2.4571
2023-05-19T01:36:53.316Z,2.4929
2023-05-19T01:38:01.493Z,2.3071
2023-05-19T01:39:09.352Z,2.3714
2023-05-19T01:40:17.412Z,2.3357
2023-05-19T01:41:25.622Z,2.1071
2023-05-19T01:42:33.453Z,2.3214
2023-05-19T01:43:41.472Z,2.2929
2023-05-19T01:44:49.547Z,2.3286
2023-05-19T01:45:57.730Z,2.2000
2023-05-19T01:47:05.704Z,2.3571
2023-05-19T01:48:13.937Z,2.2286
2023-05-19T01:49:22.051Z,2.2214
2023-05-19T01:50:30.190Z,2.3643
2023-05-19T01:51:38.068Z,2.5786
2023-05-19T01:52:46.192Z,2.2500
2023-05-19T01:53:54.198Z,2.2000
2023-05-19T01:55:02.217Z,2.0714
2023-05-19T01:56:10.335Z,2.0643
2023-05-19T01:57:18.230Z,2.1857
2023-05-19T01:58:26.298Z,2.3857
2023-05-19T01:59:34.367Z,2.3000
2023-05-19T02:00:42.536Z,2.2286
2023-05-19T02:01:50.564Z,2.1571
2023-05-19T02:02:58.725Z,2.3500
2023-05-19T02:04:06.765Z,2.3500
2023-05-19T02:05:14.975Z,2.4143
2023-05-19T02:06:22.819Z,2.2500
2023-05-19T02:07:30.971Z,2.3571
2023-05-19T02:08:38.992Z,2.2286
2023-05-19T02:09:47.051Z,2.1857
2023-05-19T02:10:55.155Z,2.2357
2023-05-19T02:12:03.070Z,2.1286
2023-05-19T02:13:11.100Z,2.1571
2023-05-19T02:14:19.168Z,2.6357
2023-05-19T02:15:27.371Z,2.2286
2023-05-19T02:16:35.448Z,2.1786
2023-05-19T02:17:43.679Z,2.2429
2023-05-19T02:18:51.622Z,2.0929
2023-05-19T02:19:59.619Z,2.0786
2023-05-19T02:21:07.881Z,2.2643
2023-05-19T02:22:15.802Z,2.1071
2023-05-19T02:23:23.813Z,2.3500
2023-05-19T02:24:31.881Z,2.3286
2023-05-19T02:25:39.943Z,2.1071
2023-05-19T02:26:47.859Z,2.0857
2023-05-19T02:27:55.980Z,2.1786
2023-05-19T02:29:04.011Z,2.2357
2023-05-19T02:30:12.459Z,2.1571
2023-05-19T02:31:20.304Z,2.2643
2023-05-19T02:32:28.351Z,2.3071
2023-05-19T02:33:36.459Z,2.0714
2023-05-19T02:34:44.465Z,2.2357
2023-05-19T02:35:52.523Z,2.2786
2023-05-19T02:37:00.728Z,2.1643
2023-05-19T02:38:08.641Z,2.1857
2023-05-19T02:39:16.732Z,2.2571
2023-05-19T02:40:24.729Z,2.2571
2023-05-19T02:41:32.693Z,2.2357
2023-05-19T02:42:40.756Z,2.1357
2023-05-19T02:43:48.807Z,2.5429
2023-05-19T02:44:57.090Z,2.2929
2023-05-19T02:46:05.118Z,2.1929
2023-05-19T02:47:13.119Z,2.2857
2023-05-19T02:48:21.077Z,2.3357
2023-05-19T02:49:29.259Z,2.3357
2023-05-19T02:50:37.343Z,2.2071
2023-05-19T02:51:45.527Z,2.1000
2023-05-19T02:52:53.498Z,2.2286
2023-05-19T02:54:01.630Z,2.2929
2023-05-19T02:55:09.559Z,2.2643
2023-05-19T02:56:17.688Z,2.4571
2023-05-19T02:57:25.572Z,2.3286
2023-05-19T02:58:33.650Z,2.2357
2023-05-19T02:59:42.102Z,2.3143
2023-05-19T03:00:49.881Z,2.1357
2023-05-19T03:01:58.015Z,2.2143
2023-05-19T03:03:06.096Z,2.4500
2023-05-19T03:04:14.082Z,2.4143
2023-05-19T03:05:22.132Z,2.3000
2023-05-19T03:06:30.212Z,2.3714
2023-05-19T03:07:38.349Z,2.2714
2023-05-19T03:08:46.306Z,2.5500
2023-05-19T03:09:54.383Z,2.4357
2023-05-19T03:11:02.328Z,2.4000
2023-05-19T03:12:10.395Z,2.2429
2023-05-19T03:13:18.446Z,2.1071
2023-05-19T03:14:26.611Z,2.2429
2023-05-19T03:15:34.695Z,2.4143
2023-05-19T03:16:42.784Z,2.2214
2023-05-19T03:17:50.933Z,2.4214
2023-05-19T03:18:58.984Z,2.5429
2023-05-19T03:20:06.931Z,2.4643
2023-05-19T03:21:14.847Z,2.4357
2023-05-19T03:22:23.010Z,2.5143
2023-05-19T03:23:31.099Z,2.4429
2023-05-19T03:24:39.201Z,2.4071
2023-05-19T03:25:47.068Z,2.5143
2023-05-19T03:26:55.160Z,2.3500
2023-05-19T03:28:03.173Z,2.6071
2023-05-19T03:29:11.476Z,2.7214
2023-05-19T03:30:19.461Z,2.7071
2023-05-19T03:31:27.504Z,2.4500
2023-05-19T03:32:35.604Z,2.4286
2023-05-19T03:33:43.853Z,2.5714
2023-05-19T03:34:51.800Z,2.4214
2023-05-19T03:35:59.786Z,2.4429
2023-05-19T03:37:07.860Z,2.5429
2023-05-19T03:38:15.871Z,2.5429
2023-05-19T03:39:23.914Z,2.6143
2023-05-19T03:40:32.136Z,2.5214
2023-05-19T03:41:39.934Z,2.4786
2023-05-19T03:42:47.963Z,2.6286
2023-05-19T03:43:56.190Z,2.6857
2023-05-19T03:45:04.226Z,2.5143
2023-05-19T03:46:12.334Z,2.3929
2023-05-19T03:47:20.452Z,2.4357
2023-05-19T03:48:28.390Z,2.4643
2023-05-19T03:49:36.442Z,2.7571
2023-05-19T03:50:44.837Z,2.6429
2023-05-19T03:51:52.637Z,2.5929
2023-05-19T03:53:00.679Z,2.6571
2023-05-19T03:54:08.672Z,2.4643
2023-05-19T03:55:16.634Z,2.8500
2023-05-19T03:56:24.678Z,2.3286
2023-05-19T03:57:32.774Z,2.4143
2023-05-19T03:58:40.969Z,2.4071
2023-05-19T03:59:49.011Z,2.7214
2023-05-19T04:00:57.054Z,2.5643
2023-05-19T04:02:05.586Z,2.5643
2023-05-19T04:03:13.265Z,2.8071
2023-05-19T04:04:21.274Z,2.6643
2023-05-19T04:05:29.301Z,2.6714
2023-05-19T04:06:37.331Z,2.6786
2023-05-19T04:07:45.623Z,2.4786
2023-05-19T04:08:53.501Z,2.4714
2023-05-19T04:10:01.423Z,2.4286
2023-05-19T04:11:09.468Z,2.4714
2023-05-19T04:12:17.552Z,2.5286
2023-05-19T04:13:25.943Z,2.6000
2023-05-19T04:14:33.829Z,2.6000
2023-05-19T04:15:41.918Z,2.6071
2023-05-19T04:16:49.905Z,2.5571
2023-05-19T04:17:58.015Z,2.4786
2023-05-19T04:19:06.149Z,2.7429
2023-05-19T04:20:14.223Z,2.5357
2023-05-19T04:21:22.153Z,2.6143
2023-05-19T04:22:30.205Z,2.7714
2023-05-19T04:23:38.477Z,2.3857
2023-05-19T04:24:46.253Z,2.5357
2023-05-19T04:25:54.330Z,2.3929
2023-05-19T04:27:02.374Z,2.6071
2023-05-19T04:28:10.527Z,2.2786
2023-05-19T04:29:18.791Z,2.5857
2023-05-19T04:30:26.767Z,2.5071
2023-05-19T04:31:34.999Z,2.6643
2023-05-19T04:32:42.845Z,2.5643
2023-05-19T04:33:50.924Z,2.3929
2023-05-19T04:34:58.961Z,2.5643
2023-05-19T04:36:07.003Z,2.5357
2023-05-19T04:37:15.146Z,2.6929
2023-05-19T04:38:23.157Z,2.8071
2023-05-19T04:39:31.070Z,2.6214
2023-05-19T04:40:39.158Z,2.8143
2023-05-19T04:41:47.242Z,2.6357
2023-05-19T04:42:55.411Z,2.6286
2023-05-19T04:44:03.457Z,2.7714
2023-05-19T04:45:11.565Z,2.8214
2023-05-19T04:46:19.600Z,2.5714
2023-05-19T04:47:27.895Z,2.7286
2023-05-19T04:48:35.745Z,2.7714
2023-05-19T04:49:43.832Z,2.4143
2023-05-19T04:50:51.965Z,2.6357
2023-05-19T04:51:59.926Z,2.4929
2023-05-19T04:53:08.037Z,2.7214
2023-05-19T04:54:15.902Z,2.4571
2023-05-19T04:55:23.966Z,2.4643
2023-05-19T04:56:32.024Z,2.8214
2023-05-19T04:57:40.245Z,2.4000
2023-05-19T04:58:48.317Z,2.6143
2023-05-19T04:59:56.578Z,2.5643
2023-05-19T05:01:04.380Z,2.6357
2023-05-19T05:02:12.607Z,2.4929
2023-05-19T05:03:20.695Z,2.7500
2023-05-19T05:04:28.617Z,2.7143
2023-05-19T05:05:36.769Z,2.5571
2023-05-19T05:06:44.689Z,2.4571
2023-05-19T05:07:52.811Z,2.3714
2023-05-19T05:09:00.699Z,2.5143
2023-05-19T05:10:08.780Z,2.9857
2023-05-19T05:11:16.815Z,2.5500
2023-05-19T05:12:25.000Z,2.4857
2023-05-19T05:13:33.082Z,2.6357
2023-05-19T05:14:41.145Z,2.6429
2023-05-19T05:15:49.210Z,2.3214
2023-05-19T05:16:57.385Z,2.4714
2023-05-19T05:18:05.381Z,2.4714
2023-05-19T05:19:13.595Z,2.5143
2023-05-19T05:20:21.528Z,2.6857
2023-05-19T05:21:29.503Z,2.4571
2023-05-19T05:22:37.555Z,2.3929
2023-05-19T05:23:45.519Z,2.4786
2023-05-19T05:24:53.554Z,2.4500
2023-05-19T05:26:01.614Z,2.5929
2023-05-19T05:27:10.095Z,2.5000
2023-05-19T05:28:17.929Z,2.4357
2023-05-19T05:29:25.986Z,2.4214
2023-05-19T05:30:33.957Z,2.6643
2023-05-19T05:31:42.094Z,2.4643
2023-05-19T05:32:50.211Z,2.4214
2023-05-19T05:33:58.217Z,2.3500
2023-05-19T05:35:06.240Z,2.4857
2023-05-19T05:36:14.434Z,2.4429
2023-05-19T05:37:22.371Z,2.5429
2023-05-19T05:38:30.304Z,2.6071
2023-05-19T05:39:38.365Z,2.5214
2023-05-19T05:40:46.395Z,2.3857
2023-05-19T05:41:54.616Z,2.5714
2023-05-19T05:43:02.641Z,2.6000
2023-05-19T05:44:10.700Z,2.5214
2023-05-19T05:45:18.816Z,2.3643
2023-05-19T05:46:27.076Z,2.4500
2023-05-19T05:47:34.913Z,2.7714
2023-05-19T05:48:43.035Z,2.7714
2023-05-19T05:49:52.995Z,2.6000
2023-05-19T05:51:03.929Z,2.6933
2023-05-19T05:52:11.836Z,2.7286
2023-05-19T05:53:19.940Z,2.6571
2023-05-19T05:54:28.014Z,2.5786
2023-05-19T05:55:36.185Z,2.4429
2023-05-19T05:56:44.239Z,2.7286
2023-05-19T05:57:52.305Z,2.7786
2023-05-19T05:59:00.414Z,2.8500
2023-05-19T06:00:08.574Z,2.9071
2023-05-19T06:01:16.506Z,3.1000
2023-05-19T06:02:24.579Z,3.2643
2023-05-19T06:03:32.708Z,3.1929
2023-05-19T06:04:40.769Z,3.2143
2023-05-19T06:05:48.777Z,2.9357
2023-05-19T06:06:56.638Z,3.1714
2023-05-19T06:08:04.780Z,2.8500
2023-05-19T06:09:12.820Z,2.9143
2023-05-19T06:10:20.942Z,3.1143
2023-05-19T06:11:29.040Z,3.0143
2023-05-19T06:12:37.100Z,2.7357
2023-05-19T06:13:45.337Z,2.9643
2023-05-19T06:14:53.197Z,2.8071
2023-05-19T06:16:02.244Z,3.0500
2023-05-19T06:17:09.329Z,2.8786
2023-05-19T06:18:17.448Z,3.1714
2023-05-19T06:19:25.640Z,3.0143
2023-05-19T06:20:33.567Z,3.1000
2023-05-19T06:21:41.415Z,3.3786
2023-05-19T06:22:49.511Z,3.1357
2023-05-19T06:23:57.730Z,3.1571
2023-05-19T06:25:05.921Z,3.3143
2023-05-19T06:26:13.803Z,3.1857
2023-05-19T06:27:21.831Z,3.1286
2023-05-19T06:28:29.967Z,2.9857
2023-05-19T06:29:38.079Z,2.9214
2023-05-19T06:30:46.052Z,3.0857
2023-05-19T06:31:54.250Z,3.1786
2023-05-19T06:33:02.177Z,3.0143
2023-05-19T06:34:10.251Z,3.0643
2023-05-19T06:35:18.193Z,2.9714
2023-05-19T06:36:26.225Z,3.0000
2023-05-19T06:37:34.301Z,3.2643
2023-05-19T06:38:42.467Z,3.0357
2023-05-19T06:39:50.505Z,2.9786
2023-05-19T06:40:58.830Z,2.9786
2023-05-19T06:42:06.671Z,3.1143
2023-05-19T06:43:14.705Z,3.1786
2023-05-19T06:44:22.752Z,3.1643
2023-05-19T06:45:30.790Z,3.3357
2023-05-19T06:46:39.204Z,3.1929
2023-05-19T06:47:46.982Z,3.2714
2023-05-19T06:48:55.170Z,3.1071
2023-05-19T06:50:02.969Z,2.9786
2023-05-19T06:51:11.027Z,3.3643
2023-05-19T06:52:19.104Z,3.1571
2023-05-19T06:53:27.276Z,3.0071
2023-05-19T06:54:35.344Z,3.1143
2023-05-19T06:55:57.540Z,3.2071
2023-05-19T06:56:56.528Z,3.2733
2023-05-19T06:58:04.394Z,2.9143
2023-05-19T06:59:12.448Z,3.3714
2023-05-19T07:00:22.894Z,3.5000
2023-05-19T07:01:33.643Z,3.1733
2023-05-19T07:02:41.660Z,3.2500
2023-05-19T07:03:49.488Z,3.1143
2023-05-19T07:04:57.486Z,3.1500
2023-05-19T07:06:07.931Z,3.1286
2023-05-19T07:07:18.544Z,3.1800
2023-05-19T07:08:26.679Z,3.4214
2023-05-19T07:09:34.932Z,3.5214
2023-05-19T07:10:42.819Z,3.5000
2023-05-19T07:11:50.851Z,3.5571
2023-05-19T07:12:59.040Z,3.4286
2023-05-19T07:14:06.900Z,3.3786
2023-05-19T07:15:14.927Z,3.7500
2023-05-19T07:16:23.037Z,3.6143
2023-05-19T07:17:31.040Z,3.4071
2023-05-19T07:18:39.145Z,3.6857
2023-05-19T07:19:47.221Z,3.6429
2023-05-19T07:20:55.214Z,3.5714
2023-05-19T07:22:03.470Z,3.2000
2023-05-19T07:23:11.477Z,3.4429
2023-05-19T07:24:19.469Z,3.3286
2023-05-19T07:25:27.552Z,3.4429
2023-05-19T07:26:35.642Z,3.6000
2023-05-19T07:27:43.768Z,3.8143
2023-05-19T07:28:51.712Z,3.6000
2023-05-19T07:29:59.812Z,3.6071
2023-05-19T07:31:07.753Z,3.6071
2023-05-19T07:32:15.876Z,3.8286
2023-05-19T07:33:23.925Z,3.6786
2023-05-19T07:34:32.074Z,3.5500
2023-05-19T07:35:40.147Z,3.5714
2023-05-19T07:36:48.182Z,3.3357
2023-05-19T07:37:56.352Z,3.4214
2023-05-19T07:39:04.344Z,3.2929
2023-05-19T07:40:12.372Z,3.2357
2023-05-19T07:41:20.387Z,3.3714
2023-05-19T07:42:28.545Z,3.4643
2023-05-19T07:43:36.598Z,3.3429
2023-05-19T07:44:44.809Z,3.4286
2023-05-19T07:45:52.776Z,3.3714
2023-05-19T07:47:00.687Z,3.3143
2023-05-19T07:48:08.987Z,3.5429
2023-05-19T07:49:16.726Z,3.4786
2023-05-19T07:50:24.792Z,3.5000
2023-05-19T07:51:32.868Z,3.3714
2023-05-19T07:52:41.151Z,3.4786
2023-05-19T07:53:49.154Z,3.5357
2023-05-19T07:54:57.144Z,3.4286
2023-05-19T07:56:05.391Z,3.4143
2023-05-19T07:57:13.376Z,3.2071
2023-05-19T07:58:21.337Z,3.2643
2023-05-19T07:59:29.386Z,3.2714
2023-05-19T08:00:37.540Z,3.4286
2023-05-19T08:01:45.519Z,3.1714
2023-05-19T08:02:53.674Z,3.1929
2023-05-19T08:04:01.580Z,3.5429
2023-05-19T08:05:09.573Z,3.2286
2023-05-19T08:06:17.674Z,3.2214
2023-05-19T08:07:26.023Z,3.2357
2023-05-19T08:08:34.084Z,3.3214
2023-05-19T08:09:41.946Z,3.3571
2023-05-19T08:10:50.058Z,3.3214
2023-05-19T08:11:58.193Z,3.3143
2023-05-19T08:13:06.102Z,3.2643
2023-05-19T08:14:14.173Z,3.3857
2023-05-19T08:15:22.308Z,3.4571
2023-05-19T08:16:30.635Z,3.2000
2023-05-19T08:17:38.319Z,3.4500
2023-05-19T08:18:46.387Z,3.4000
2023-05-19T08:19:54.332Z,3.2500
2023-05-19T08:21:02.541Z,3.3214
2023-05-19T08:22:10.615Z,3.4643
2023-05-19T08:23:18.685Z,3.5571
2023-05-19T08:24:26.792Z,3.3357
2023-05-19T08:25:34.812Z,3.7786
2023-05-19T08:26:42.879Z,3.6071
2023-05-19T08:27:51.089Z,3.5500
2023-05-19T08:28:59.029Z,3.3000
2023-05-19T08:30:07.024Z,3.3929
2023-05-19T08:31:15.247Z,3.4429
2023-05-19T08:32:23.099Z,3.3643
2023-05-19T08:33:31.083Z,3.7286
2023-05-19T08:34:39.139Z,3.6500
2023-05-19T08:35:47.489Z,3.6143
2023-05-19T08:36:55.546Z,3.5500
2023-05-19T08:38:03.453Z,3.7214
2023-05-19T08:39:11.591Z,3.6500
2023-05-19T08:40:19.656Z,3.6786
2023-05-19T08:41:27.820Z,3.4357
2023-05-19T08:42:35.767Z,3.5500
2023-05-19T08:43:43.831Z,3.6357
2023-05-19T08:44:52.187Z,3.6429
2023-05-19T08:45:59.896Z,3.8857
2023-05-19T08:47:08.021Z,3.4786
2023-05-19T08:48:16.003Z,3.5500
2023-05-19T08:49:25.570Z,3.7429
2023-05-19T08:50:32.506Z,3.5571
2023-05-19T08:51:40.155Z,3.9214
2023-05-19T08:52:51.796Z,3.8143
2023-05-19T08:54:01.288Z,3.7933
2023-05-19T08:55:09.340Z,3.8857
2023-05-19T08:56:17.331Z,3.7286
2023-05-19T08:57:25.475Z,3.6786
2023-05-19T08:58:33.515Z,3.6143
2023-05-19T08:59:41.402Z,3.7000
2023-05-19T09:00:49.517Z,3.9143
2023-05-19T09:01:57.578Z,3.6500
2023-05-19T09:04:13.911Z,3.6429
2023-05-19T09:05:21.914Z,3.8143
2023-05-19T09:06:29.921Z,3.4500
2023-05-19T09:07:38.072Z,3.7143
2023-05-19T09:08:45.998Z,3.5500
2023-05-19T09:09:54.349Z,3.5571
2023-05-19T09:11:02.171Z,3.6286
2023-05-19T09:12:10.291Z,3.4214
2023-05-19T09:13:18.255Z,3.6786
2023-05-19T09:14:26.216Z,3.6000
2023-05-19T09:15:34.602Z,3.6000
2023-05-19T09:16:42.389Z,3.5929
2023-05-19T09:17:50.640Z,3.6571
2023-05-19T09:18:58.621Z,3.7143
2023-05-19T09:20:06.680Z,3.6857
2023-05-19T09:21:14.716Z,3.4643
2023-05-19T09:22:22.836Z,3.6071
2023-05-19T09:23:30.819Z,3.6929
2023-05-19T09:24:38.863Z,3.8500
2023-05-19T09:25:46.981Z,3.5357
2023-05-19T09:26:55.756Z,3.6643
2023-05-19T09:28:07.868Z,3.5267
2023-05-19T09:29:15.853Z,3.8929
2023-05-19T09:30:23.885Z,3.7643
2023-05-19T09:31:32.161Z,3.8143
2023-05-19T09:32:40.165Z,3.9071
2023-05-19T09:33:48.281Z,3.9286
2023-05-19T09:34:56.529Z,3.8929
2023-05-19T09:36:04.320Z,3.5786
2023-05-19T09:37:12.370Z,3.9143
2023-05-19T09:38:20.564Z,3.7071
2023-05-19T09:39:28.553Z,3.7071
2023-05-19T09:40:36.607Z,3.7357
2023-05-19T09:41:44.667Z,3.6714
2023-05-19T09:42:52.572Z,3.8429
2023-05-19T09:44:00.678Z,3.7429
2023-05-19T09:45:08.678Z,3.7786
2023-05-19T09:46:16.885Z,4.0714
2023-05-19T09:47:24.903Z,3.6429
2023-05-19T09:48:32.991Z,3.7500
2023-05-19T09:49:41.279Z,3.6714
2023-05-19T09:50:49.260Z,3.7214
2023-05-19T09:51:57.195Z,3.8429
2023-05-19T09:53:05.261Z,3.7143
2023-05-19T09:54:13.385Z,3.5429
2023-05-19T09:55:21.358Z,3.6571
2023-05-19T09:56:29.442Z,3.7143
2023-05-19T09:57:37.358Z,3.6643
2023-05-19T09:58:45.414Z,3.4000
2023-05-19T09:59:53.487Z,3.8286
2023-05-19T10:01:01.631Z,3.6643
2023-05-19T10:02:09.760Z,3.8857
2023-05-19T10:03:17.828Z,3.8000
2023-05-19T10:04:25.922Z,3.6643
2023-05-19T10:05:34.320Z,3.8429
2023-05-19T10:06:42.296Z,3.6571
2023-05-19T10:07:50.044Z,3.5571
2023-05-19T10:08:58.157Z,3.6786
2023-05-19T10:10:06.175Z,3.6500
2023-05-19T10:11:14.209Z,3.9143
2023-05-19T10:12:22.159Z,3.8643
2023-05-19T10:13:30.232Z,3.8143
2023-05-19T10:14:38.275Z,3.6000
2023-05-19T10:15:57.327Z,3.6000
2023-05-19T10:16:59.481Z,3.8800
2023-05-19T10:18:07.545Z,3.5000
2023-05-19T10:19:15.548Z,3.9786
2023-05-19T10:20:23.573Z,3.5714
2023-05-19T10:21:31.667Z,3.6214
2023-05-19T10:22:39.753Z,3.9357
2023-05-19T10:23:47.895Z,3.7643
2023-05-19T10:24:55.820Z,3.8286
2023-05-19T10:26:03.754Z,3.7929
2023-05-19T10:27:11.834Z,3.9214
2023-05-19T10:28:19.921Z,3.6429
2023-05-19T10:29:28.129Z,3.7929
2023-05-19T10:30:36.110Z,4.0857
2023-05-19T10:31:44.338Z,3.8214
2023-05-19T10:32:52.308Z,4.0071
2023-05-19T10:34:00.398Z,3.8000
2023-05-19T10:35:08.460Z,3.9286
2023-05-19T10:36:16.535Z,4.3357
2023-05-19T10:37:24.538Z,3.9929
2023-05-19T10:38:32.543Z,3.7714
2023-05-19T10:39:40.657Z,3.7929
2023-05-19T10:40:48.543Z,3.9071
2023-05-19T10:41:56.629Z,3.9714
2023-05-19T10:43:04.672Z,3.9500
2023-05-19T10:44:12.916Z,4.4143
2023-05-19T10:45:21.127Z,3.9500
2023-05-19T10:46:28.959Z,3.7214
2023-05-19T10:47:37.046Z,3.7714
2023-05-19T10:48:45.125Z,3.9429
2023-05-19T10:49:53.344Z,3.8500
2023-05-19T10:51:01.272Z,4.1500
2023-05-19T10:52:09.369Z,3.9500
2023-05-19T10:53:17.349Z,3.9643
2023-05-19T10:54:25.689Z,4.1500
2023-05-19T10:55:33.525Z,3.8643
2023-05-19T10:56:41.443Z,3.8857
2023-05-19T10:57:49.510Z,3.8929
2023-05-19T10:58:57.644Z,3.9357
2023-05-19T11:00:05.692Z,4.0857
2023-05-19T11:01:13.837Z,4.0143
2023-05-19T11:02:21.807Z,4.0143
2023-05-19T11:04:37.913Z,4.1286
2023-05-19T11:05:46.011Z,3.8643
2023-05-19T11:06:54.117Z,3.7286
2023-05-19T11:08:02.201Z,3.6929
2023-05-19T11:09:10.160Z,3.8429
2023-05-19T11:10:18.133Z,3.9000
2023-05-19T11:11:26.202Z,4.0714
2023-05-19T11:12:34.210Z,4.1929
2023-05-19T11:13:42.405Z,3.9429
2023-05-19T11:14:50.451Z,3.7071
2023-05-19T11:15:58.562Z,3.8500
2023-05-19T11:17:06.728Z,3.9000
2023-05-19T11:18:14.703Z,3.7214
2023-05-19T11:19:22.886Z,3.6929
2023-05-19T11:20:30.794Z,3.8357
2023-05-19T11:21:38.962Z,3.7714
2023-05-19T11:22:46.892Z,3.7429
2023-05-19T11:23:55.121Z,3.5714
2023-05-19T11:25:02.865Z,3.8571
2023-05-19T11:26:10.961Z,3.9929
2023-05-19T11:27:19.109Z,3.8071
2023-05-19T11:28:27.277Z,3.4357
2023-05-19T11:29:35.245Z,3.5857
2023-05-19T11:30:43.347Z,3.8929
2023-05-19T11:31:51.555Z,3.4429
2023-05-19T11:32:59.442Z,3.8000
2023-05-19T11:34:07.503Z,3.6857
2023-05-19T11:35:15.668Z,3.8929
2023-05-19T11:36:23.630Z,3.6071
2023-05-19T11:37:31.675Z,3.7000
2023-05-19T11:38:39.690Z,3.7500
2023-05-19T11:39:47.689Z,3.7857
2023-05-19T11:40:55.749Z,3.7000
2023-05-19T11:42:03.824Z,3.7714
2023-05-19T11:43:11.915Z,3.8357
2023-05-19T11:44:20.007Z,3.8714
2023-05-19T11:45:28.079Z,3.8857
2023-05-19T11:46:36.472Z,4.2143
2023-05-19T11:48:00.827Z,4.0143
2023-05-19T11:48:57.393Z,3.9467
2023-05-19T11:50:05.215Z,3.8214
2023-05-19T11:51:13.335Z,3.8214
2023-05-19T11:52:21.383Z,3.8786
2023-05-19T11:53:29.246Z,3.6571
2023-05-19T11:54:37.332Z,3.7214
2023-05-19T11:55:45.803Z,3.8214
2023-05-19T11:56:53.713Z,3.7214
2023-05-19T11:58:04.649Z,3.7643
2023-05-19T11:59:14.546Z,3.7200
2023-05-19T12:00:22.573Z,3.5857
2023-05-19T12:01:30.637Z,3.6500
2023-05-19T12:02:38.864Z,3.3786
2023-05-19T12:03:46.922Z,3.4286
2023-05-19T12:04:54.963Z,3.4143
2023-05-19T12:06:02.961Z,3.1929
2023-05-19T12:07:10.847Z,3.3500
2023-05-19T12:08:18.997Z,3.3786
2023-05-19T12:09:27.030Z,3.3000
2023-05-19T12:10:35.133Z,3.3571
2023-05-19T12:11:43.207Z,3.3571
2023-05-19T12:12:51.226Z,3.6143
2023-05-19T12:13:59.325Z,3.3571
2023-05-19T12:15:07.347Z,3.2286
2023-05-19T12:16:15.522Z,3.4071
2023-05-19T12:17:23.602Z,3.3714
2023-05-19T12:18:31.520Z,3.5143
2023-05-19T12:19:39.593Z,3.7214
2023-05-19T12:20:47.776Z,3.4714
2023-05-19T12:21:55.675Z,3.5286
2023-05-19T12:23:03.850Z,3.5357
2023-05-19T12:24:11.812Z,3.3571
2023-05-19T12:25:19.857Z,3.5786
2023-05-19T12:26:28.049Z,3.3571
2023-05-19T12:27:35.971Z,3.3286
2023-05-19T12:28:44.156Z,3.6571
2023-05-19T12:29:52.170Z,3.6071
2023-05-19T12:31:00.332Z,3.4357
2023-05-19T12:32:08.425Z,3.5714
2023-05-19T12:33:16.468Z,3.3429
2023-05-19T12:34:24.417Z,3.4143
2023-05-19T12:35:32.488Z,3.2643
2023-05-19T12:36:40.494Z,3.4786
2023-05-19T12:37:48.524Z,3.4071
2023-05-19T12:38:56.560Z,3.1786
2023-05-19T12:40:04.845Z,3.3071
2023-05-19T12:41:13.023Z,3.2929
2023-05-19T12:42:20.831Z,3.1357
2023-05-19T12:43:28.962Z,3.3714
2023-05-19T12:44:36.963Z,3.1286
2023-05-19T12:45:45.129Z,3.2643
2023-05-19T12:46:53.235Z,3.3857
2023-05-19T12:48:01.372Z,3.1714
2023-05-19T12:49:09.313Z,3.3429
2023-05-19T12:50:17.390Z,3.1714
2023-05-19T12:51:25.367Z,3.2571
2023-05-19T12:52:33.385Z,3.1857
2023-05-19T12:53:41.436Z,3.3357
2023-05-19T12:54:49.629Z,3.3714
2023-05-19T12:55:57.746Z,3.5143
2023-05-19T12:57:05.913Z,3.8000
2023-05-19T12:58:13.874Z,3.3857
2023-05-19T12:59:37.093Z,3.5214
2023-05-19T13:00:34.987Z,3.4733
2023-05-19T13:01:42.912Z,3.6643
2023-05-19T13:02:51.110Z,3.6286
2023-05-19T13:03:59.206Z,3.7071
2023-05-19T13:05:06.920Z,3.7857
2023-05-19T13:06:14.991Z,3.6714
2023-05-19T13:07:23.042Z,3.7714
2023-05-19T13:08:31.469Z,3.7500
2023-05-19T13:09:39.274Z,3.7429
2023-05-19T13:10:47.589Z,3.6214
2023-05-19T13:11:55.450Z,3.9571
2023-05-19T13:13:03.552Z,3.6714
2023-05-19T13:14:11.515Z,3.6000
2023-05-19T13:15:19.595Z,3.7429
2023-05-19T13:16:27.671Z,3.5643
2023-05-19T13:17:35.768Z,3.6000
2023-05-19T13:18:43.816Z,3.7286
2023-05-19T13:19:51.824Z,3.6357
2023-05-19T13:20:59.819Z,3.5929
2023-05-19T13:22:07.951Z,3.9643
2023-05-19T13:23:16.212Z,3.8357
2023-05-19T13:24:24.336Z,4.0000
2023-05-19T13:25:32.220Z,3.7929
2023-05-19T13:26:40.265Z,3.6571
2023-05-19T13:27:48.334Z,3.9357
2023-05-19T13:28:56.361Z,4.0286
2023-05-19T13:30:04.451Z,3.8000
2023-05-19T13:31:12.533Z,3.9071
2023-05-19T13:32:20.639Z,3.9143
2023-05-19T13:33:28.504Z,3.7429
2023-05-19T13:34:36.539Z,3.6857
2023-05-19T13:35:44.636Z,3.7857
2023-05-19T13:36:52.709Z,4.0500
2023-05-19T13:38:00.897Z,3.8929
2023-05-19T13:39:09.077Z,3.8929
2023-05-19T13:40:17.042Z,3.8500
2023-05-19T13:41:25.044Z,3.9643
2023-05-19T13:42:33.148Z,3.9000
2023-05-19T13:43:41.211Z,3.7286
2023-05-19T13:44:49.237Z,4.0214
2023-05-19T13:45:57.454Z,3.7714
2023-05-19T13:47:05.347Z,3.6929
2023-05-19T13:48:13.540Z,3.8429
2023-05-19T13:49:21.315Z,3.9143
2023-05-19T13:50:29.401Z,3.9143
2023-05-19T13:51:37.512Z,3.7500
2023-05-19T13:52:45.679Z,3.8357
2023-05-19T13:53:53.652Z,4.1500
2023-05-19T13:55:01.892Z,4.1214
2023-05-19T13:56:09.803Z,3.9714
2023-05-19T13:57:17.839Z,3.9857
2023-05-19T13:58:25.979Z,3.8357
2023-05-19T13:59:33.979Z,3.9286
2023-05-19T14:00:42.040Z,3.8286
2023-05-19T14:01:50.182Z,4.0000
2023-05-19T14:02:58.482Z,3.9214
2023-05-19T14:04:07.022Z,3.9071
2023-05-19T14:05:14.190Z,3.8357
2023-05-19T14:06:22.214Z,3.8571
2023-05-19T14:07:30.417Z,3.8857
2023-05-19T14:08:38.525Z,3.9071
2023-05-19T14:09:46.531Z,3.8000
2023-05-19T14:10:54.726Z,3.9500
2023-05-19T14:12:02.619Z,4.0357